Time;durP1;ratioP1;P1;durP2;ratioP2;P2;SDS_P1;SDS_P2;PMS_P1;PMS_P2;Temp;Humidity;BMP_temperature;BMP_pressure;BME280_temperature;BME280_humidity;BME280_pressure;Samples;Min_cycle;Max_cycle;Signal;HPM_P1;HPM_P2
2023/07/30 00:01:45;;;;;;;5.55;1.85;;;;;;;;;;5045476;28;20432;-63
2023/07/30 00:04:12;;;;;;;3.00;1.10;;;;;;;;;;5043216;28;20037;-65
2023/07/30 00:06:38;;;;;;;3.85;1.40;;;;;;;;;;5044586;28;20505;-64
2023/07/30 00:09:05;;;;;;;5.45;1.65;;;;;;;;;;5025780;28;20139;-64
2023/07/30 00:11:31;;;;;;;5.00;1.48;;;;;;;;;;5044828;28;20088;-64
2023/07/30 00:13:58;;;;;;;3.90;1.52;;;;;;;;;;5026058;28;20463;-64
2023/07/30 00:16:26;;;;;;;4.53;1.20;;;;;;;;;;5023991;28;20405;-63
2023/07/30 00:18:53;;;;;;;3.20;1.30;;;;;;;;;;5047699;28;20048;-63
2023/07/30 00:21:19;;;;;;;4.25;1.45;;;;;;;;;;5047747;28;20047;-63
2023/07/30 00:23:46;;;;;;;4.53;1.42;;;;;;;;;;5046961;28;20040;-63
2023/07/30 00:26:13;;;;;;;4.40;1.30;;;;;;;;;;5025623;28;20138;-64
2023/07/30 00:28:39;;;;;;;5.03;1.40;;;;;;;;;;5029710;28;20036;-63
2023/07/30 00:31:06;;;;;;;4.07;1.60;;;;;;;;;;5030474;28;20044;-63
2023/07/30 00:33:32;;;;;;;4.80;1.30;;;;;;;;;;5045780;28;20044;-63
2023/07/30 00:35:59;;;;;;;5.82;1.73;;;;;;;;;;5035286;28;20052;-65
2023/07/30 00:38:26;;;;;;;5.60;2.40;;;;;;;;;;5045565;28;20048;-64
2023/07/30 00:41:12;;;;;;;5.07;1.90;;;;;;;;;;5021115;28;20177;-66
2023/07/30 00:43:38;;;;;;;4.47;1.35;;;;;;;;;;5019922;28;20520;-63
2023/07/30 00:46:05;;;;;;;4.45;1.25;;;;;;;;;;5018568;28;20569;-63
2023/07/30 00:48:32;;;;;;;7.10;1.30;;;;;;;;;;5019209;28;20454;-64
2023/07/30 00:50:59;;;;;;;5.78;1.58;;;;;;;;;;5020564;28;20136;-63
2023/07/30 00:53:27;;;;;;;5.18;1.40;;;;;;;;;;5018714;28;20135;-62
2023/07/30 00:55:54;;;;;;;7.10;1.35;;;;;;;;;;5017520;28;20045;-62
2023/07/30 00:58:21;;;;;;;3.72;1.20;;;;;;;;;;5017927;28;20051;-64
2023/07/30 01:00:48;;;;;;;5.85;1.58;;;;;;;;;;5016679;28;20064;-65
2023/07/30 01:03:15;;;;;;;5.75;1.23;;;;;;;;;;5019204;28;20052;-65
2023/07/30 01:05:42;;;;;;;4.57;1.23;;;;;;;;;;5019239;28;20529;-64
2023/07/30 01:08:09;;;;;;;4.05;1.30;;;;;;;;;;5009505;28;20394;-69
2023/07/30 01:10:36;;;;;;;4.20;1.25;;;;;;;;;;4992961;28;20037;-67
2023/07/30 01:13:04;;;;;;;4.10;1.40;;;;;;;;;;5039280;28;20067;-68
2023/07/30 01:15:32;;;;;;;3.63;1.35;;;;;;;;;;5045729;28;20037;-67
2023/07/30 01:17:59;;;;;;;3.88;1.30;;;;;;;;;;5022976;28;20098;-66
2023/07/30 01:20:31;;;;;;;3.03;0.90;;;;;;;;;;5029604;28;20044;-67
2023/07/30 01:23:00;;;;;;;5.75;1.20;;;;;;;;;;5023966;28;20045;-67
2023/07/30 01:25:29;;;;;;;4.10;1.48;;;;;;;;;;5046318;28;20048;-67
2023/07/30 01:27:59;;;;;;;6.07;1.50;;;;;;;;;;5049129;28;20081;-66
2023/07/30 01:30:27;;;;;;;5.13;1.70;;;;;;;;;;5029047;28;20579;-67
2023/07/30 01:32:54;;;;;;;4.15;1.30;;;;;;;;;;5050917;28;20048;-69
2023/07/30 01:35:22;;;;;;;5.78;1.52;;;;;;;;;;5032373;28;20048;-67
2023/07/30 01:37:49;;;;;;;4.35;1.60;;;;;;;;;;5023080;28;21079;-69
2023/07/30 01:40:16;;;;;;;3.20;1.38;;;;;;;;;;5022841;28;20785;-67
2023/07/30 01:42:42;;;;;;;6.55;1.30;;;;;;;;;;4996307;28;21358;-70
2023/07/30 01:45:09;;;;;;;3.30;1.15;;;;;;;;;;5016495;28;20434;-66
2023/07/30 01:47:36;;;;;;;3.78;1.30;;;;;;;;;;5017209;28;20041;-68
2023/07/30 01:50:02;;;;;;;3.97;1.65;;;;;;;;;;5019464;28;20112;-68
2023/07/30 01:52:29;;;;;;;6.57;1.58;;;;;;;;;;5005899;28;20040;-69
2023/07/30 01:54:58;;;;;;;2.97;0.90;;;;;;;;;;5017726;28;20075;-66
2023/07/30 01:57:24;;;;;;;5.05;1.48;;;;;;;;;;4987464;28;20045;-67
2023/07/30 01:59:52;;;;;;;6.45;1.10;;;;;;;;;;5015819;28;20042;-66
2023/07/30 02:02:19;;;;;;;3.40;1.10;;;;;;;;;;5017405;28;20148;-67
2023/07/30 02:04:45;;;;;;;3.80;1.40;;;;;;;;;;5000379;28;20053;-68
2023/07/30 02:07:12;;;;;;;3.42;1.38;;;;;;;;;;5013571;28;20047;-68
2023/07/30 02:09:39;;;;;;;4.90;1.48;;;;;;;;;;5003154;28;20616;-68
2023/07/30 02:12:06;;;;;;;3.88;1.33;;;;;;;;;;4990488;28;20493;-69
2023/07/30 02:14:33;;;;;;;3.72;1.40;;;;;;;;;;4991125;28;20034;-68
2023/07/30 02:16:59;;;;;;;3.85;1.27;;;;;;;;;;4999712;28;20049;-66
2023/07/30 02:19:26;;;;;;;3.72;1.45;;;;;;;;;;4984915;28;20447;-67
2023/07/30 02:21:53;;;;;;;6.47;1.70;;;;;;;;;;4989709;28;20543;-70
2023/07/30 02:24:22;;;;;;;5.22;1.33;;;;;;;;;;4989460;28;20068;-69
2023/07/30 02:26:49;;;;;;;5.72;1.25;;;;;;;;;;4987373;28;20097;-65
2023/07/30 02:29:15;;;;;;;6.10;1.15;;;;;;;;;;4988207;28;20046;-65
2023/07/30 02:31:42;;;;;;;4.07;1.17;;;;;;;;;;4986413;28;20881;-66
2023/07/30 02:34:09;;;;;;;5.00;1.48;;;;;;;;;;4985964;28;20771;-66
2023/07/30 06:53:22;;;;;;;4.30;1.90;;;;;;;;;;5056382;27;20431;-65
2023/07/30 06:55:48;;;;;;;7.85;2.17;;;;;;;;;;5017425;28;20069;-65
2023/07/30 06:58:15;;;;;;;3.67;1.48;;;;;;;;;;5018197;28;20609;-64
2023/07/30 07:00:41;;;;;;;3.75;1.52;;;;;;;;;;5031334;28;21497;-64
2023/07/30 07:03:08;;;;;;;6.72;2.88;;;;;;;;;;5017728;28;20786;-65
2023/07/30 07:05:35;;;;;;;6.60;2.80;;;;;;;;;;5015583;28;20065;-65
2023/07/30 07:08:01;;;;;;;5.45;2.00;;;;;;;;;;5017267;28;20569;-64
2023/07/30 07:10:28;;;;;;;6.15;2.03;;;;;;;;;;5020982;28;20033;-64
2023/07/30 07:12:55;;;;;;;6.45;1.80;;;;;;;;;;5017571;28;21120;-63
2023/07/30 07:15:21;;;;;;;4.32;1.70;;;;;;;;;;5016794;28;20122;-64
2023/07/30 07:17:48;;;;;;;6.38;1.52;;;;;;;;;;5017754;28;20159;-63
2023/07/30 07:20:14;;;;;;;5.00;2.03;;;;;;;;;;5014004;28;20041;-63
2023/07/30 07:22:41;;;;;;;5.28;1.75;;;;;;;;;;5016283;28;20148;-64
2023/07/30 07:25:08;;;;;;;5.45;1.70;;;;;;;;;;5015915;28;20398;-63
2023/07/30 07:27:34;;;;;;;4.05;1.55;;;;;;;;;;5018079;28;20922;-63
2023/07/30 07:30:01;;;;;;;4.95;1.60;;;;;;;;;;5030854;28;20038;-64
2023/07/30 07:32:28;;;;;;;6.03;1.88;;;;;;;;;;5034447;28;20049;-64
2023/07/30 07:34:55;;;;;;;5.78;1.52;;;;;;;;;;5016333;28;20042;-62
2023/07/30 07:37:21;;;;;;;5.10;1.60;;;;;;;;;;5017457;28;20127;-66
2023/07/30 07:39:48;;;;;;;3.75;1.73;;;;;;;;;;5018406;28;20084;-63
2023/07/30 07:42:14;;;;;;;5.65;1.70;;;;;;;;;;5016859;28;20052;-63
2023/07/30 07:44:43;;;;;;;5.97;1.80;;;;;;;;;;5019841;28;20522;-64
2023/07/30 07:47:10;;;;;;;4.55;2.08;;;;;;;;;;5015707;28;20045;-63
2023/07/30 07:49:37;;;;;;;5.38;1.73;;;;;;;;;;5015098;28;20103;-63
2023/07/30 07:52:03;;;;;;;7.97;1.52;;;;;;;;;;5017897;28;20072;-64
2023/07/30 07:54:30;;;;;;;4.70;1.95;;;;;;;;;;5014110;28;20038;-62
2023/07/30 07:56:56;;;;;;;4.85;1.90;;;;;;;;;;5017356;28;20103;-62
2023/07/30 07:59:23;;;;;;;3.72;1.58;;;;;;;;;;5016484;28;20050;-63
2023/07/30 08:01:50;;;;;;;5.60;1.70;;;;;;;;;;5016322;28;20052;-63
2023/07/30 08:04:16;;;;;;;5.22;1.80;;;;;;;;;;5004561;28;21145;-63
2023/07/30 08:06:43;;;;;;;7.55;2.08;;;;;;;;;;5014937;28;20052;-63
2023/07/30 08:09:10;;;;;;;5.75;1.75;;;;;;;;;;5001705;28;20048;-63
2023/07/30 08:11:36;;;;;;;5.20;2.20;;;;;;;;;;4999737;28;20171;-62
2023/07/30 08:14:03;;;;;;;4.47;2.00;;;;;;;;;;5004058;28;20042;-62
2023/07/30 08:16:29;;;;;;;5.68;2.30;;;;;;;;;;5003393;28;20137;-63
2023/07/30 08:18:56;;;;;;;6.03;2.20;;;;;;;;;;5005179;28;20071;-62
2023/07/30 08:21:23;;;;;;;4.10;2.08;;;;;;;;;;5001633;28;20059;-64
2023/07/30 08:23:49;;;;;;;7.43;1.98;;;;;;;;;;5001127;28;20411;-63
2023/07/30 08:26:16;;;;;;;4.18;2.10;;;;;;;;;;5001893;28;20038;-63
2023/07/30 08:28:43;;;;;;;4.18;1.73;;;;;;;;;;5001881;28;20077;-63
2023/07/30 08:31:29;;;;;;;4.03;1.90;;;;;;;;;;5020256;28;20167;-63
2023/07/30 08:33:56;;;;;;;4.45;2.20;;;;;;;;;;5038494;28;20044;-63
2023/07/30 08:36:22;;;;;;;6.10;2.10;;;;;;;;;;5038662;28;20044;-63
2023/07/30 08:38:49;;;;;;;5.38;2.20;;;;;;;;;;5039039;28;20815;-63
2023/07/30 08:41:16;;;;;;;6.38;2.15;;;;;;;;;;5022919;28;20026;-65
2023/07/30 08:43:42;;;;;;;4.88;1.92;;;;;;;;;;5002621;28;20112;-63
2023/07/30 08:46:09;;;;;;;7.43;2.28;;;;;;;;;;5018364;28;20458;-64
2023/07/30 08:48:35;;;;;;;5.30;2.28;;;;;;;;;;5028646;28;20032;-63
2023/07/30 08:51:02;;;;;;;6.28;2.08;;;;;;;;;;5026529;28;22067;-62
2023/07/30 08:53:29;;;;;;;6.10;2.20;;;;;;;;;;5038613;28;20266;-62
2023/07/30 08:55:56;;;;;;;5.82;1.80;;;;;;;;;;5038665;28;20036;-64
2023/07/30 08:58:23;;;;;;;4.90;1.98;;;;;;;;;;5037834;28;20549;-63
2023/07/30 09:00:51;;;;;;;3.78;1.80;;;;;;;;;;5025371;28;20045;-63
2023/07/30 09:03:18;;;;;;;7.18;2.30;;;;;;;;;;5005676;28;20089;-64
2023/07/30 09:05:45;;;;;;;8.20;2.17;;;;;;;;;;5017093;28;20045;-63
2023/07/30 09:08:12;;;;;;;7.68;2.08;;;;;;;;;;5038379;28;20470;-63
2023/07/30 09:10:39;;;;;;;7.20;2.10;;;;;;;;;;5012845;28;20132;-63
2023/07/30 09:13:06;;;;;;;6.88;1.95;;;;;;;;;;5004949;28;21576;-63
2023/07/30 09:15:39;;;;;;;4.28;2.03;;;;;;;;;;5003076;28;20038;-65
2023/07/30 09:18:08;;;;;;;4.63;1.98;;;;;;;;;;5004395;28;20049;-62
2023/07/30 09:20:42;;;;;;;4.50;2.33;;;;;;;;;;5003855;28;20076;-62
2023/07/30 09:23:10;;;;;;;4.88;2.10;;;;;;;;;;5004544;28;20069;-63
2023/07/30 09:25:37;;;;;;;6.53;2.05;;;;;;;;;;5004790;28;20677;-64
2023/07/30 09:28:04;;;;;;;5.68;2.00;;;;;;;;;;5013538;28;20116;-65
2023/07/30 09:30:30;;;;;;;4.90;2.20;;;;;;;;;;5005658;28;20062;-64
2023/07/30 09:32:57;;;;;;;9.23;2.03;;;;;;;;;;5003668;28;20045;-64
2023/07/30 09:35:25;;;;;;;6.45;2.03;;;;;;;;;;5004607;28;20208;-62
2023/07/30 09:38:03;;;;;;;3.45;1.60;;;;;;;;;;5005930;28;20050;-63
2023/07/30 09:40:38;;;;;;;8.13;2.22;;;;;;;;;;5005858;28;20835;-63
2023/07/30 09:43:06;;;;;;;7.45;2.50;;;;;;;;;;5004617;28;20986;-63
2023/07/30 09:45:37;;;;;;;7.25;2.55;;;;;;;;;;5004137;28;20160;-63
2023/07/30 09:48:05;;;;;;;6.57;2.97;;;;;;;;;;5003720;28;20048;-65
2023/07/30 09:50:31;;;;;;;5.75;2.90;;;;;;;;;;5004008;28;20029;-64
2023/07/30 09:52:59;;;;;;;8.35;3.05;;;;;;;;;;5005125;28;20073;-64
2023/07/30 09:55:26;;;;;;;6.57;3.08;;;;;;;;;;5004392;28;20038;-64
2023/07/30 09:57:53;;;;;;;6.18;3.45;;;;;;;;;;5003957;28;20529;-63
2023/07/30 10:00:20;;;;;;;6.82;3.15;;;;;;;;;;5005479;28;20049;-62
2023/07/30 10:02:47;;;;;;;10.27;3.15;;;;;;;;;;5004892;28;20395;-63
2023/07/30 10:05:15;;;;;;;8.20;3.53;;;;;;;;;;5002886;28;20837;-63
2023/07/30 10:07:45;;;;;;;6.90;3.70;;;;;;;;;;5003846;28;20083;-62
2023/07/30 10:10:12;;;;;;;8.52;3.20;;;;;;;;;;5004772;28;20720;-64
2023/07/30 10:12:40;;;;;;;8.35;3.15;;;;;;;;;;5005546;28;20060;-63
2023/07/30 10:15:08;;;;;;;7.05;2.92;;;;;;;;;;5003148;28;20052;-61
2023/07/30 10:17:34;;;;;;;5.63;3.25;;;;;;;;;;5004000;28;20040;-61
2023/07/30 10:20:19;;;;;;;4.30;2.45;;;;;;;;;;5004479;28;20050;-61
2023/07/30 10:22:46;;;;;;;5.78;2.95;;;;;;;;;;5003218;28;20346;-62
2023/07/30 10:25:13;;;;;;;5.50;2.20;;;;;;;;;;5011500;28;20061;-62
2023/07/30 10:27:43;;;;;;;5.45;2.50;;;;;;;;;;5006230;28;20557;-64
2023/07/30 10:30:31;;;;;;;4.97;2.20;;;;;;;;;;5025746;28;20029;-62
2023/07/30 10:33:02;;;;;;;6.85;2.42;;;;;;;;;;5024305;28;20821;-66
2023/07/30 10:35:38;;;;;;;4.82;2.45;;;;;;;;;;5026021;28;20897;-64
2023/07/30 10:38:17;;;;;;;5.60;2.13;;;;;;;;;;5026991;28;20881;-63
2023/07/30 10:41:00;;;;;;;6.28;2.65;;;;;;;;;;5027808;28;20091;-64
2023/07/30 10:43:48;;;;;;;5.70;2.28;;;;;;;;;;5026272;28;20041;-63
2023/07/30 10:46:15;;;;;;;5.07;2.50;;;;;;;;;;5027655;28;20538;-62
2023/07/30 10:48:43;;;;;;;6.30;2.20;;;;;;;;;;5026115;28;20029;-64
2023/07/30 10:51:11;;;;;;;4.57;2.13;;;;;;;;;;5025051;28;20446;-63
2023/07/30 10:53:39;;;;;;;6.80;1.92;;;;;;;;;;5025378;28;20108;-65
2023/07/30 10:56:06;;;;;;;7.15;2.30;;;;;;;;;;5026471;28;20527;-62
2023/07/30 10:58:34;;;;;;;6.18;2.25;;;;;;;;;;5024833;28;20045;-64
2023/07/30 11:01:07;;;;;;;5.43;2.30;;;;;;;;;;5018834;28;20069;-63
2023/07/30 11:03:34;;;;;;;3.90;1.85;;;;;;;;;;5001869;28;20034;-63
2023/07/30 11:06:01;;;;;;;4.88;2.13;;;;;;;;;;5011827;28;20038;-62
2023/07/30 11:08:45;;;;;;;4.90;2.33;;;;;;;;;;5003727;28;20034;-62
2023/07/30 11:11:11;;;;;;;5.50;2.28;;;;;;;;;;5004215;28;20141;-62
2023/07/30 11:13:39;;;;;;;5.78;2.10;;;;;;;;;;5002510;28;20038;-63
2023/07/30 11:16:09;;;;;;;5.68;1.98;;;;;;;;;;5002977;28;20034;-64
2023/07/30 11:18:37;;;;;;;6.03;2.28;;;;;;;;;;5003006;28;20038;-63
2023/07/30 11:21:07;;;;;;;5.05;2.08;;;;;;;;;;5003845;28;20045;-63
2023/07/30 11:23:34;;;;;;;6.72;2.20;;;;;;;;;;5001370;28;20104;-63
2023/07/30 11:26:04;;;;;;;3.92;1.80;;;;;;;;;;5003468;28;20137;-63
2023/07/30 11:28:35;;;;;;;7.20;2.35;;;;;;;;;;5003356;28;20148;-63
2023/07/30 11:31:05;;;;;;;4.30;1.95;;;;;;;;;;5002829;28;20689;-63
2023/07/30 11:33:32;;;;;;;5.38;1.73;;;;;;;;;;5001211;28;20046;-63
2023/07/30 11:36:01;;;;;;;5.07;2.08;;;;;;;;;;5004440;28;20050;-63
2023/07/30 11:38:28;;;;;;;3.78;1.70;;;;;;;;;;5003520;28;20033;-64
2023/07/30 11:40:55;;;;;;;5.72;1.80;;;;;;;;;;5005882;28;20491;-62
2023/07/30 11:43:22;;;;;;;4.93;2.00;;;;;;;;;;5007237;28;20037;-63
2023/07/30 11:45:49;;;;;;;4.60;1.50;;;;;;;;;;5007515;28;20048;-64
2023/07/30 11:48:16;;;;;;;7.10;1.80;;;;;;;;;;5007757;28;20487;-63
2023/07/30 11:50:46;;;;;;;6.32;1.50;;;;;;;;;;5005936;28;20041;-61
2023/07/30 11:53:13;;;;;;;5.60;1.98;;;;;;;;;;5005839;28;20042;-63
2023/07/30 11:55:40;;;;;;;4.32;1.70;;;;;;;;;;5005858;28;20037;-61
2023/07/30 11:58:09;;;;;;;5.97;1.80;;;;;;;;;;5008184;28;20982;-61
2023/07/30 12:00:37;;;;;;;8.60;1.90;;;;;;;;;;5007098;28;20063;-62
2023/07/30 12:03:04;;;;;;;5.88;2.03;;;;;;;;;;5006306;28;20048;-63
2023/07/30 12:05:35;;;;;;;7.13;1.80;;;;;;;;;;5005349;28;20419;-63
2023/07/30 12:08:03;;;;;;;4.60;1.85;;;;;;;;;;5006992;28;20045;-62
2023/07/30 12:10:52;;;;;;;4.18;1.95;;;;;;;;;;5005415;28;20042;-63
2023/07/30 12:13:19;;;;;;;5.47;2.20;;;;;;;;;;5005623;28;20056;-63
2023/07/30 12:15:55;;;;;;;6.47;2.00;;;;;;;;;;5020029;28;20133;-64
2023/07/30 12:18:26;;;;;;;6.80;1.80;;;;;;;;;;5005561;28;21216;-63
2023/07/30 12:20:53;;;;;;;4.55;1.80;;;;;;;;;;5006665;28;20041;-63
2023/07/30 12:23:20;;;;;;;5.30;1.90;;;;;;;;;;5006129;28;20052;-63
2023/07/30 12:25:47;;;;;;;3.78;1.70;;;;;;;;;;5005557;28;20056;-63
2023/07/30 12:28:14;;;;;;;6.53;1.55;;;;;;;;;;5007232;28;20602;-63
2023/07/30 12:30:41;;;;;;;5.20;2.05;;;;;;;;;;5005392;28;20381;-61
2023/07/30 12:33:07;;;;;;;6.20;2.25;;;;;;;;;;5006642;28;20054;-63
2023/07/30 12:35:34;;;;;;;4.20;2.00;;;;;;;;;;5004832;28;20121;-63
2023/07/30 12:38:01;;;;;;;4.85;2.22;;;;;;;;;;5005145;28;20117;-62
2023/07/30 12:40:33;;;;;;;4.40;1.88;;;;;;;;;;5006286;28;20057;-61
2023/07/30 12:43:02;;;;;;;6.63;2.03;;;;;;;;;;5003703;28;20499;-63
2023/07/30 12:45:28;;;;;;;11.02;2.40;;;;;;;;;;5005759;28;20525;-63
2023/07/30 12:47:55;;;;;;;4.90;2.15;;;;;;;;;;5006698;28;20034;-63
2023/07/30 12:50:22;;;;;;;4.68;2.20;;;;;;;;;;5003506;28;20045;-62
2023/07/30 12:52:48;;;;;;;5.35;2.30;;;;;;;;;;5004553;28;20049;-63
2023/07/30 12:55:15;;;;;;;4.13;1.80;;;;;;;;;;5005913;28;20042;-62
2023/07/30 12:57:42;;;;;;;5.78;2.13;;;;;;;;;;5005361;28;22661;-62
2023/07/30 13:00:08;;;;;;;4.80;2.20;;;;;;;;;;5019858;28;20394;-63
2023/07/30 13:02:35;;;;;;;5.70;2.05;;;;;;;;;;5015160;28;20045;-64
2023/07/30 13:05:04;;;;;;;6.03;2.17;;;;;;;;;;5005422;28;20038;-62
2023/07/30 13:07:31;;;;;;;4.47;1.80;;;;;;;;;;5005768;28;20053;-62
2023/07/30 13:10:04;;;;;;;4.97;2.00;;;;;;;;;;5006672;28;20455;-64
2023/07/30 13:12:31;;;;;;;4.45;1.90;;;;;;;;;;5005612;28;20053;-63
2023/07/30 13:14:58;;;;;;;7.05;2.10;;;;;;;;;;5006802;28;20057;-63
2023/07/30 13:17:24;;;;;;;4.07;1.73;;;;;;;;;;5004304;28;20052;-64
2023/07/30 13:19:51;;;;;;;7.90;2.00;;;;;;;;;;5006111;28;20030;-64
2023/07/30 13:22:17;;;;;;;4.22;1.98;;;;;;;;;;5005659;28;20041;-64
2023/07/30 13:24:45;;;;;;;4.72;1.88;;;;;;;;;;5005179;28;20073;-63
2023/07/30 13:27:12;;;;;;;4.85;2.20;;;;;;;;;;5020516;28;20044;-64
2023/07/30 13:29:38;;;;;;;6.07;2.22;;;;;;;;;;5003737;28;20038;-63
2023/07/30 13:32:05;;;;;;;7.05;2.17;;;;;;;;;;5006303;28;20057;-63
2023/07/30 13:34:32;;;;;;;6.30;2.13;;;;;;;;;;5004723;28;20041;-63
2023/07/30 13:36:59;;;;;;;4.18;2.00;;;;;;;;;;5004300;28;20579;-64
2023/07/30 13:39:25;;;;;;;6.38;2.10;;;;;;;;;;5005164;28;20071;-64
2023/07/30 13:41:52;;;;;;;8.82;2.30;;;;;;;;;;5006416;28;20030;-63
2023/07/30 13:44:19;;;;;;;5.40;1.95;;;;;;;;;;5006453;28;20339;-63
2023/07/30 13:46:46;;;;;;;5.03;2.45;;;;;;;;;;5003682;28;20076;-63
2023/07/30 13:49:12;;;;;;;5.93;2.67;;;;;;;;;;5006976;28;20117;-63
2023/07/30 13:51:39;;;;;;;9.10;2.22;;;;;;;;;;5001922;28;20058;-63
2023/07/30 13:54:07;;;;;;;7.60;2.38;;;;;;;;;;5007222;28;20079;-64
2023/07/30 13:56:34;;;;;;;6.50;2.38;;;;;;;;;;5005915;28;20046;-63
2023/07/30 13:59:01;;;;;;;4.55;2.22;;;;;;;;;;5005968;28;20497;-63
2023/07/30 14:01:29;;;;;;;6.82;2.42;;;;;;;;;;5004511;28;20033;-64
2023/07/30 14:03:56;;;;;;;4.85;2.40;;;;;;;;;;5005831;28;20394;-63
2023/07/30 14:06:22;;;;;;;5.18;2.63;;;;;;;;;;5005134;28;20132;-62
2023/07/30 14:08:49;;;;;;;5.85;2.53;;;;;;;;;;5007033;28;20045;-62
2023/07/30 14:11:15;;;;;;;7.72;2.40;;;;;;;;;;5005009;28;20790;-63
2023/07/30 14:13:42;;;;;;;7.97;2.90;;;;;;;;;;5004281;28;20045;-63
2023/07/30 14:16:10;;;;;;;7.22;2.95;;;;;;;;;;5005455;28;20049;-62
2023/07/30 14:18:38;;;;;;;6.30;3.55;;;;;;;;;;5004501;28;20064;-64
2023/07/30 14:21:05;;;;;;;8.98;3.20;;;;;;;;;;5006538;28;20075;-64
2023/07/30 14:23:32;;;;;;;7.70;3.50;;;;;;;;;;5021373;28;20104;-63
2023/07/30 14:26:00;;;;;;;8.00;3.63;;;;;;;;;;5021473;28;20133;-62
2023/07/30 14:28:26;;;;;;;6.28;3.53;;;;;;;;;;5005268;28;20037;-63
2023/07/30 14:30:53;;;;;;;5.95;3.15;;;;;;;;;;5006547;28;20041;-63
2023/07/30 14:33:20;;;;;;;5.43;2.75;;;;;;;;;;5007333;28;20133;-66
2023/07/30 14:35:47;;;;;;;6.82;2.70;;;;;;;;;;5004751;28;20716;-62
2023/07/30 14:38:13;;;;;;;8.45;2.90;;;;;;;;;;5011458;28;20607;-62
2023/07/30 14:40:40;;;;;;;7.47;3.38;;;;;;;;;;5004157;28;20531;-63
2023/07/30 14:43:06;;;;;;;8.65;3.13;;;;;;;;;;5004406;28;20993;-63
2023/07/30 14:45:33;;;;;;;7.70;2.90;;;;;;;;;;5005509;28;20515;-62
2023/07/30 14:48:00;;;;;;;6.70;2.65;;;;;;;;;;5005096;28;20048;-62
2023/07/30 14:50:28;;;;;;;8.88;2.90;;;;;;;;;;5003981;28;20166;-64
2023/07/30 14:52:55;;;;;;;7.38;2.80;;;;;;;;;;5003253;28;20050;-62
2023/07/30 14:55:21;;;;;;;6.68;3.20;;;;;;;;;;5004005;28;20491;-65
2023/07/30 14:57:48;;;;;;;7.80;3.42;;;;;;;;;;5004394;28;20042;-62
2023/07/30 15:00:16;;;;;;;7.85;4.18;;;;;;;;;;5004201;28;20061;-64
2023/07/30 15:02:44;;;;;;;9.30;3.80;;;;;;;;;;5004234;28;21001;-65
2023/07/30 15:05:10;;;;;;;8.75;3.55;;;;;;;;;;5005308;28;20606;-66
2023/07/30 15:07:37;;;;;;;7.68;3.30;;;;;;;;;;5002950;28;20033;-64
2023/07/30 15:10:04;;;;;;;9.00;2.95;;;;;;;;;;5005951;28;20064;-64
2023/07/30 15:12:30;;;;;;;7.03;3.30;;;;;;;;;;5002334;28;20081;-65
2023/07/30 15:14:57;;;;;;;7.30;3.58;;;;;;;;;;5009884;28;20606;-63
2023/07/30 15:17:24;;;;;;;8.13;3.20;;;;;;;;;;5007857;28;20084;-63
2023/07/30 15:19:52;;;;;;;5.95;3.40;;;;;;;;;;5008829;28;20079;-66
2023/07/30 15:22:18;;;;;;;6.50;2.70;;;;;;;;;;5022557;28;20045;-61
2023/07/30 15:24:45;;;;;;;5.40;3.00;;;;;;;;;;5006545;28;20131;-62
2023/07/30 15:27:12;;;;;;;8.13;3.30;;;;;;;;;;5007442;28;20582;-63
2023/07/30 15:29:38;;;;;;;7.53;3.83;;;;;;;;;;5007548;28;20363;-62
2023/07/30 15:32:05;;;;;;;6.90;3.53;;;;;;;;;;5006947;28;20061;-61
2023/07/30 15:34:32;;;;;;;8.05;3.15;;;;;;;;;;5005626;28;20061;-64
2023/07/30 15:37:00;;;;;;;9.32;3.20;;;;;;;;;;5007477;28;20045;-62
2023/07/30 15:39:26;;;;;;;8.65;3.38;;;;;;;;;;5006508;28;20084;-63
2023/07/30 15:41:53;;;;;;;6.80;3.17;;;;;;;;;;5007176;28;20042;-64
2023/07/30 15:44:20;;;;;;;9.75;3.30;;;;;;;;;;5006815;28;20049;-64
2023/07/30 15:46:47;;;;;;;9.85;3.50;;;;;;;;;;5021949;28;20046;-63
2023/07/30 15:51:31;;;;;;;10.25;4.15;;;;;;;;;;5057416;27;20441;-63
2023/07/30 15:53:58;;;;;;;10.13;3.65;;;;;;;;;;5056727;28;20190;-63
2023/07/30 15:56:24;;;;;;;8.57;3.38;;;;;;;;;;5055118;28;20059;-63
2023/07/30 15:58:51;;;;;;;6.05;3.00;;;;;;;;;;5057092;28;20044;-62
2023/07/30 16:01:17;;;;;;;7.18;2.95;;;;;;;;;;5057337;28;20101;-63
2023/07/30 16:03:44;;;;;;;5.90;2.58;;;;;;;;;;5053016;28;20110;-63
2023/07/30 16:06:11;;;;;;;6.32;2.80;;;;;;;;;;5038441;28;20045;-64
2023/07/30 16:08:38;;;;;;;5.25;2.72;;;;;;;;;;5047338;28;20522;-64
2023/07/30 16:11:08;;;;;;;5.82;2.65;;;;;;;;;;5056888;28;20053;-63
2023/07/30 16:13:35;;;;;;;5.50;2.63;;;;;;;;;;5055147;27;20044;-64
2023/07/30 16:16:14;;;;;;;5.32;2.63;;;;;;;;;;5057748;28;20145;-65
2023/07/30 16:18:44;;;;;;;6.38;2.72;;;;;;;;;;5055654;27;20045;-66
2023/07/30 16:21:11;;;;;;;4.78;2.30;;;;;;;;;;5042435;28;20049;-64
2023/07/30 16:23:37;;;;;;;4.72;2.42;;;;;;;;;;5035674;28;20037;-64
2023/07/30 16:26:05;;;;;;;4.22;2.17;;;;;;;;;;5042528;28;20045;-64
2023/07/30 16:28:32;;;;;;;7.47;2.33;;;;;;;;;;5057057;28;20352;-64
2023/07/30 16:30:59;;;;;;;5.82;2.15;;;;;;;;;;5057126;28;20056;-63
2023/07/30 16:33:26;;;;;;;6.40;2.35;;;;;;;;;;5057031;28;20052;-65
2023/07/30 16:35:52;;;;;;;6.22;3.10;;;;;;;;;;5057452;28;20052;-68
2023/07/30 16:38:19;;;;;;;6.75;2.83;;;;;;;;;;5057244;28;20128;-66
2023/07/30 16:40:46;;;;;;;9.73;2.97;;;;;;;;;;5058138;28;20043;-66
2023/07/30 16:43:14;;;;;;;19.80;4.90;;;;;;;;;;5061104;28;20066;-66
2023/07/30 16:45:40;;;;;;;44.58;7.07;;;;;;;;;;5057268;28;20079;-66
2023/07/30 16:48:07;;;;;;;11.65;3.33;;;;;;;;;;5055430;27;20143;-66
2023/07/30 16:50:34;;;;;;;63.90;18.15;;;;;;;;;;5055155;28;20155;-66
2023/07/30 16:53:01;;;;;;;11.90;3.95;;;;;;;;;;5057101;28;20135;-66
2023/07/30 16:55:30;;;;;;;22.08;5.50;;;;;;;;;;5054829;27;20047;-65
2023/07/30 16:57:57;;;;;;;6.30;3.03;;;;;;;;;;5056893;28;20070;-65
2023/07/30 17:00:24;;;;;;;7.78;3.15;;;;;;;;;;5056525;27;20041;-66
2023/07/30 17:02:51;;;;;;;7.40;2.85;;;;;;;;;;5044505;28;20041;-66
2023/07/30 17:05:17;;;;;;;4.82;2.15;;;;;;;;;;5042917;28;20041;-65
2023/07/30 17:07:44;;;;;;;7.00;3.10;;;;;;;;;;5043762;28;20032;-67
2023/07/30 17:10:11;;;;;;;4.85;2.50;;;;;;;;;;5037704;28;20102;-64
2023/07/30 17:12:38;;;;;;;6.47;2.40;;;;;;;;;;5021440;28;20053;-64
2023/07/30 17:15:08;;;;;;;4.78;2.65;;;;;;;;;;5037487;28;20053;-65
2023/07/30 17:17:35;;;;;;;6.63;2.80;;;;;;;;;;5041110;28;20048;-64
2023/07/30 17:20:02;;;;;;;6.65;2.65;;;;;;;;;;5043121;28;20040;-64
2023/07/30 17:22:32;;;;;;;4.20;2.17;;;;;;;;;;5042314;28;20036;-65
2023/07/30 17:25:00;;;;;;;7.90;2.78;;;;;;;;;;5043535;28;21694;-67
2023/07/30 17:27:27;;;;;;;6.55;2.83;;;;;;;;;;5042221;28;20136;-65
2023/07/30 17:29:58;;;;;;;5.47;2.50;;;;;;;;;;5041355;28;20064;-64
2023/07/30 17:32:27;;;;;;;5.00;2.28;;;;;;;;;;5041320;28;20127;-66
2023/07/30 17:34:57;;;;;;;6.18;2.90;;;;;;;;;;5042506;28;20043;-64
2023/07/30 17:37:24;;;;;;;6.40;2.72;;;;;;;;;;5039714;28;20111;-66
2023/07/30 17:39:51;;;;;;;4.68;2.40;;;;;;;;;;5013562;28;20041;-64
2023/07/30 17:42:17;;;;;;;4.80;2.70;;;;;;;;;;5024262;28;20869;-66
2023/07/30 17:45:04;;;;;;;6.32;2.70;;;;;;;;;;5001970;28;20425;-67
2023/07/30 17:47:30;;;;;;;4.57;2.40;;;;;;;;;;5014759;28;20609;-63
2023/07/30 17:49:57;;;;;;;5.50;2.83;;;;;;;;;;5013985;28;20662;-63
2023/07/30 17:52:24;;;;;;;5.57;3.13;;;;;;;;;;5013386;28;20705;-66
2023/07/30 17:54:50;;;;;;;8.63;3.28;;;;;;;;;;5014012;28;20045;-65
2023/07/30 17:57:17;;;;;;;10.02;2.95;;;;;;;;;;5010538;28;20080;-65
2023/07/30 17:59:44;;;;;;;6.78;3.22;;;;;;;;;;5011922;28;20094;-66
2023/07/30 18:02:10;;;;;;;5.63;2.65;;;;;;;;;;5011170;28;20053;-65
2023/07/30 18:04:37;;;;;;;9.65;2.83;;;;;;;;;;5013480;28;20212;-64
2023/07/30 18:07:04;;;;;;;6.65;3.00;;;;;;;;;;5012047;28;20381;-66
2023/07/30 18:09:30;;;;;;;7.32;2.83;;;;;;;;;;5013974;28;20141;-64
2023/07/30 18:11:57;;;;;;;7.20;2.53;;;;;;;;;;5012586;28;20048;-65
2023/07/30 18:14:24;;;;;;;6.90;2.33;;;;;;;;;;5010588;28;20518;-63
2023/07/30 18:16:50;;;;;;;7.47;2.53;;;;;;;;;;5018111;28;20060;-64
2023/07/30 18:19:17;;;;;;;7.20;2.42;;;;;;;;;;5030254;28;20044;-66
2023/07/30 18:21:43;;;;;;;5.03;2.40;;;;;;;;;;5030622;28;20047;-66
2023/07/30 18:24:10;;;;;;;6.63;2.33;;;;;;;;;;5039700;28;20029;-64
2023/07/30 18:26:37;;;;;;;6.53;2.42;;;;;;;;;;5039292;28;20051;-64
2023/07/30 18:29:03;;;;;;;8.27;1.88;;;;;;;;;;5037870;28;20041;-65
2023/07/30 18:31:30;;;;;;;6.32;2.45;;;;;;;;;;5034563;28;20044;-63
2023/07/30 18:33:56;;;;;;;7.90;2.15;;;;;;;;;;5036270;28;20037;-63
2023/07/30 18:36:23;;;;;;;4.10;1.65;;;;;;;;;;5039338;28;21560;-63
2023/07/30 18:38:50;;;;;;;4.88;2.00;;;;;;;;;;5041237;28;20068;-62
2023/07/30 18:41:16;;;;;;;4.28;2.10;;;;;;;;;;5040721;28;20025;-63
2023/07/30 18:43:43;;;;;;;6.45;2.30;;;;;;;;;;5039516;28;20048;-64
2023/07/30 18:46:10;;;;;;;5.78;2.10;;;;;;;;;;5043177;28;20094;-63
2023/07/30 18:48:36;;;;;;;7.50;2.03;;;;;;;;;;5040556;28;20128;-65
2023/07/30 18:51:03;;;;;;;6.70;2.30;;;;;;;;;;5038672;28;20128;-64
2023/07/30 18:53:30;;;;;;;4.60;2.13;;;;;;;;;;5040012;28;20036;-65
2023/07/30 18:55:56;;;;;;;4.40;2.08;;;;;;;;;;5041110;28;20127;-66
2023/07/30 18:58:23;;;;;;;4.88;2.28;;;;;;;;;;5040063;28;20316;-63
2023/07/30 19:00:50;;;;;;;7.10;2.58;;;;;;;;;;5040183;28;20040;-64
2023/07/30 19:03:16;;;;;;;5.35;2.60;;;;;;;;;;5039432;28;20131;-64
2023/07/30 19:05:49;;;;;;;5.32;2.63;;;;;;;;;;5038892;28;20171;-65